Gail, Texas
Current Conditions -  °F | °C
As of 7:15 AM on Saturday 25 Oct 2014 (Local Time) from KSNK Reporting Station
Clear Clear  
Wind Chill: 57°   Ceiling: Unl
Heat Index: 57°   Visibility: 10mi
Dew Point: 55°   Wind: 5mph
Humidity: 92%   Direction: 210°SSW
Pressure: 30.17"   Gusts: NA
Location:  32.77°N, 101.45°W
Report Text: KSNK 251215Z AUTO 21004KT 10SM CLR 14/13 A3017 RMK AO2 T01400128
Loading
Personal Weather Stations






























Interactive Weather Map
Tropical Storm Tracking
New forecast layout! Learn more

10-Day Weather Forecast

Advertisements
Track Severe Weather on mobile